Time;durP1;ratioP1;P1;durP2;ratioP2;P2;SDS_P1;SDS_P2;PMS_P1;PMS_P2;Temp;Humidity;BMP_temperature;BMP_pressure;BME280_temperature;BME280_humidity;BME280_pressure;Samples;Min_cycle;Max_cycle;Signal;HPM_P1;HPM_P2
2022/01/12 00:01:23;;;;;;;62.37;23.83;;;;;;;-4.03;85.35;100874.23;4284028;82;21065;-82
2022/01/12 00:07:25;;;;;;;57.27;21.97;;;;;;;-3.90;85.40;100872.62;4367127;80;21073;-82
2022/01/12 00:13:27;;;;;;;66.83;25.37;;;;;;;-3.86;85.11;100868.45;4285263;82;21010;-83
2022/01/12 00:19:29;;;;;;;62.13;23.33;;;;;;;-3.83;85.15;100869.31;4280336;82;21077;-82
2022/01/12 00:25:44;;;;;;;59.23;20.97;;;;;;;-3.87;85.23;100874.83;4400956;80;21010;-82
2022/01/12 00:37:56;;;;;;;62.43;22.27;;;;;;;-3.81;85.30;100879.78;4358902;81;21584;-82
2022/01/12 00:44:01;;;;;;;57.97;24.10;;;;;;;-3.72;85.48;100878.36;4369369;81;21546;-82
2022/01/12 00:50:05;;;;;;;57.97;22.50;;;;;;;-3.59;85.33;100883.45;4332910;81;21094;-82
2022/01/12 00:56:07;;;;;;;62.07;23.80;;;;;;;-3.65;85.31;100882.52;4353812;81;21094;-81
2022/01/12 01:02:08;;;;;;;58.87;23.23;;;;;;;-3.66;85.09;100874.73;4363896;81;21614;-81
2022/01/12 01:08:10;;;;;;;102.67;30.40;;;;;;;-3.76;85.13;100879.34;4363191;81;21003;-84
2022/01/12 01:14:21;;;;;;;51.53;20.50;;;;;;;-3.79;85.14;100879.03;4373332;81;21051;-84
2022/01/12 01:26:41;;;;;;;70.73;22.73;;;;;;;-3.80;85.16;100878.20;4376892;80;21138;-81
2022/01/12 01:32:43;;;;;;;53.17;18.90;;;;;;;-3.85;85.10;100887.45;4368516;80;21015;-81
2022/01/12 01:38:46;;;;;;;47.33;18.27;;;;;;;-3.85;85.33;100882.66;4292067;81;21126;-83
2022/01/12 01:57:09;;;;;;;41.77;18.43;;;;;;;-3.75;85.44;100883.67;4297558;82;21075;-83
2022/01/12 02:03:11;;;;;;;43.97;18.43;;;;;;;-3.56;85.49;100877.63;4305957;82;21114;-81
2022/01/12 02:09:16;;;;;;;49.57;20.33;;;;;;;-3.52;85.32;100875.57;4358951;80;21086;-81
2022/01/12 02:15:25;;;;;;;32.25;16.48;;;;;;;-3.48;85.34;100883.41;4392226;80;21089;-81
2022/01/12 02:40:49;;;;;;;51.13;21.30;;;;;;;-3.50;85.17;100884.19;4379088;80;21472;-84
2022/01/12 02:59:33;;;;;;;59.37;21.00;;;;;;;-3.47;85.23;100881.55;4360241;81;21062;-81
2022/01/12 03:05:45;;;;;;;51.37;20.97;;;;;;;-3.37;85.26;100881.76;4371338;81;20983;-82
2022/01/12 03:11:40;;;;;;;53.97;20.47;;;;;;;-3.37;85.15;100885.23;4367180;81;21050;-83
2022/01/12 03:17:50;;;;;;;53.10;18.93;;;;;;;-3.44;85.05;100878.39;4345577;81;21006;-82
2022/01/12 03:23:52;;;;;;;52.77;20.10;;;;;;;-3.46;85.13;100878.63;4355043;81;21057;-82
2022/01/12 03:29:56;;;;;;;53.90;21.00;;;;;;;-3.41;85.35;100873.89;4347780;81;21052;-81
2022/01/12 04:12:40;;;;;;;51.97;21.00;;;;;;;-3.51;85.23;100862.46;4348111;81;21453;-81
2022/01/12 04:18:42;;;;;;;62.93;24.67;;;;;;;-3.50;85.15;100866.78;4342353;81;21055;-81
2022/01/12 04:24:44;;;;;;;57.63;22.63;;;;;;;-3.39;85.38;100863.77;4333704;81;21611;-82
2022/01/12 04:30:45;;;;;;;60.70;22.53;;;;;;;-3.42;85.12;100869.61;4344536;81;21157;-83
2022/01/12 04:36:47;;;;;;;60.13;22.30;;;;;;;-3.49;85.22;100871.08;4330057;81;21066;-82
2022/01/12 04:42:48;;;;;;;57.63;22.00;;;;;;;-3.47;85.45;100875.67;4333253;81;21053;-82
2022/01/12 04:49:07;;;;;;;55.43;22.80;;;;;;;-3.42;84.90;100874.45;4355994;81;22180;-81
2022/01/12 04:54:59;;;;;;;42.87;17.10;;;;;;;-3.42;85.17;100876.30;4200127;81;31259;-81
2022/01/12 05:01:10;;;;;;;70.10;22.97;;;;;;;-3.46;84.79;100883.98;4225261;83;21024;-82
2022/01/12 05:07:23;;;;;;;39.40;15.43;;;;;;;-3.61;84.61;100881.02;4205384;83;21120;-82
2022/01/12 05:13:12;;;;;;;43.10;15.77;;;;;;;-3.66;84.32;100890.80;4200678;83;21090;-83
2022/01/12 05:19:14;;;;;;;42.83;14.77;;;;;;;-3.68;84.63;100895.59;4210926;83;21899;-82
2022/01/12 05:25:21;;;;;;;31.10;12.03;;;;;;;-3.72;84.49;100893.91;4209504;83;21145;-82
2022/01/12 05:31:23;;;;;;;24.87;10.87;;;;;;;-3.74;84.60;100900.01;4222348;82;21475;-83
2022/01/12 05:37:25;;;;;;;33.60;13.47;;;;;;;-3.85;84.42;100907.53;4231652;83;21174;-82
2022/01/12 05:43:30;;;;;;;44.90;14.97;;;;;;;-3.81;84.42;100913.23;4218679;83;21054;-82
2022/01/12 05:49:35;;;;;;;27.83;10.97;;;;;;;-3.83;84.42;100916.66;4220676;83;21071;-82
2022/01/12 05:55:38;;;;;;;34.70;13.13;;;;;;;-3.83;84.31;100914.80;4213169;83;21118;-82
2022/01/12 06:01:40;;;;;;;153.93;46.37;;;;;;;-3.87;84.15;100913.62;4215755;84;21003;-83
2022/01/12 06:07:42;;;;;;;27.33;10.73;;;;;;;-3.87;84.14;100924.33;4209282;82;21093;-83
2022/01/12 06:13:44;;;;;;;26.93;10.63;;;;;;;-3.95;83.99;100930.06;4183349;84;21099;-82
2022/01/12 06:19:46;;;;;;;30.33;11.87;;;;;;;-4.01;83.85;100935.53;4191498;84;21261;-83
2022/01/12 06:26:07;;;;;;;28.43;10.10;;;;;;;-4.04;83.83;100943.48;4209075;84;21088;-82
2022/01/12 06:32:10;;;;;;;24.60;11.03;;;;;;;-4.00;83.66;100942.50;4157925;84;22243;-83
2022/01/12 06:38:11;;;;;;;25.80;11.33;;;;;;;-3.98;83.70;100947.10;4203809;84;21051;-83
2022/01/12 06:44:17;;;;;;;52.63;17.77;;;;;;;-3.99;83.45;100950.29;4200112;84;21462;-82
2022/01/12 06:50:21;;;;;;;156.33;92.10;;;;;;;-4.06;83.28;100952.80;4192519;84;22012;-81
2022/01/12 06:56:23;;;;;;;35.37;17.00;;;;;;;-4.09;83.25;100961.28;4219961;83;21782;-83
2022/01/12 07:02:26;;;;;;;37.63;13.97;;;;;;;-4.08;82.90;100969.59;4215264;83;21087;-83
2022/01/12 07:08:43;;;;;;;23.10;9.53;;;;;;;-4.05;82.71;100982.50;4220458;83;21596;-83
2022/01/12 07:14:46;;;;;;;24.90;10.03;;;;;;;-4.11;82.83;100982.92;4208181;83;21079;-82
2022/01/12 07:20:49;;;;;;;24.47;9.10;;;;;;;-3.96;82.82;100987.82;4186966;84;21071;-82
2022/01/12 07:26:51;;;;;;;21.00;9.70;;;;;;;-3.95;82.57;100998.80;4188610;83;21047;-82
2022/01/12 07:32:53;;;;;;;36.40;13.93;;;;;;;-3.98;82.43;100999.27;4177086;81;29491;-83
2022/01/12 07:38:55;;;;;;;29.27;11.73;;;;;;;-4.00;81.87;100995.48;4151382;85;21263;-82
2022/01/12 07:45:01;;;;;;;34.50;14.50;;;;;;;-4.04;82.22;100993.52;4150315;85;21038;-82
2022/01/12 07:51:02;;;;;;;28.40;10.95;;;;;;;-4.05;82.16;101001.22;4138160;85;21565;-82
2022/01/12 07:57:05;;;;;;;33.43;12.63;;;;;;;-4.02;81.96;101014.95;4161085;85;21049;-82
2022/01/12 08:03:12;;;;;;;29.83;12.13;;;;;;;-4.06;81.82;101019.67;4189471;85;21116;-82
2022/01/12 08:09:13;;;;;;;39.90;16.20;;;;;;;-4.05;81.81;101012.75;4147696;85;21038;-82
2022/01/12 08:15:15;;;;;;;34.97;13.30;;;;;;;-4.02;81.75;101010.95;4193577;84;21023;-82
2022/01/12 08:21:16;;;;;;;32.60;13.83;;;;;;;-4.07;81.53;101021.52;4182763;84;21061;-81
2022/01/12 08:27:18;;;;;;;28.20;11.20;;;;;;;-4.08;81.65;101011.05;4180376;84;21077;-82
2022/01/12 08:33:19;;;;;;;33.13;15.17;;;;;;;-4.01;81.60;101024.60;4194232;84;21065;-82
2022/01/12 08:39:21;;;;;;;31.80;12.57;;;;;;;-3.87;81.66;101025.22;4180849;84;21061;-82
2022/01/12 08:45:22;;;;;;;33.60;14.17;;;;;;;-3.89;81.27;101028.12;4129643;85;21084;-82
2022/01/12 08:51:24;;;;;;;34.13;13.50;;;;;;;-3.94;81.30;101034.69;4050069;87;21149;-82
2022/01/12 08:57:50;;;;;;;32.80;12.57;;;;;;;-3.98;81.21;101035.39;4150217;84;21043;-83
2022/01/12 09:03:52;;;;;;;34.95;13.20;;;;;;;-3.95;81.33;101036.26;4181072;83;22011;-85
2022/01/12 09:09:53;;;;;;;37.97;15.63;;;;;;;-3.91;80.98;101055.62;4178438;83;21061;-82
2022/01/12 09:15:54;;;;;;;35.63;14.13;;;;;;;-3.85;81.42;101044.00;4091927;85;21018;-82
2022/01/12 09:21:56;;;;;;;42.23;16.90;;;;;;;-3.71;81.25;101045.41;4174853;83;21003;-83
2022/01/12 09:28:01;;;;;;;43.33;17.07;;;;;;;-3.63;80.99;101036.20;4193462;84;21066;-82
2022/01/12 09:34:03;;;;;;;42.40;16.73;;;;;;;-3.59;80.90;101026.67;4106174;85;21074;-82
2022/01/12 09:40:06;;;;;;;41.40;16.40;;;;;;;-3.63;80.72;101034.34;4108672;85;21105;-82
2022/01/12 09:46:09;;;;;;;35.60;13.83;;;;;;;-3.58;80.56;101024.28;4191673;83;21001;-83
2022/01/12 09:52:12;;;;;;;46.43;19.67;;;;;;;-3.83;79.57;101017.00;4184434;83;21158;-81
2022/01/12 09:58:13;;;;;;;35.93;15.00;;;;;;;-3.89;80.49;101013.41;4119746;84;21126;-82
2022/01/12 10:04:24;;;;;;;62.30;19.53;;;;;;;-3.82;80.50;100994.57;4210235;84;21073;-82
2022/01/12 10:10:25;;;;;;;44.00;17.30;;;;;;;-3.62;80.79;100973.06;4128305;85;22020;-83
2022/01/12 10:16:27;;;;;;;42.07;16.03;;;;;;;-3.46;80.32;100971.55;4187272;84;21026;-83
2022/01/12 10:22:28;;;;;;;41.43;18.27;;;;;;;-3.50;80.17;100967.19;4107089;85;21014;-84
2022/01/12 10:28:29;;;;;;;41.03;17.70;;;;;;;-3.46;80.04;100966.20;4108596;84;21130;-83
2022/01/12 10:34:37;;;;;;;37.80;16.67;;;;;;;-3.44;80.00;100969.43;4174190;84;21605;-83
2022/01/12 10:41:06;;;;;;;34.43;15.00;;;;;;;-3.45;79.82;100984.70;4122661;84;21038;-83
2022/01/12 10:47:27;;;;;;;39.20;15.27;;;;;;;-3.57;79.71;100986.56;4101634;85;21142;-84
2022/01/12 10:53:34;;;;;;;30.57;15.00;;;;;;;-3.66;79.74;100985.81;4106776;86;21046;-83
2022/01/12 10:59:37;;;;;;;33.33;14.93;;;;;;;-3.62;79.71;100972.27;4091488;86;21098;-83
2022/01/12 11:05:38;;;;;;;38.47;14.93;;;;;;;-3.69;79.39;100955.50;4111794;86;21107;-83
2022/01/12 11:11:41;;;;;;;40.10;16.93;;;;;;;-3.63;79.42;100971.95;4150632;84;21098;-83
2022/01/12 11:17:46;;;;;;;38.37;16.03;;;;;;;-3.66;79.10;100963.06;4156094;84;21118;-83
2022/01/12 11:23:50;;;;;;;37.53;15.43;;;;;;;-3.71;79.10;100966.98;4149893;83;21636;-83
2022/01/12 11:29:51;;;;;;;44.80;17.07;;;;;;;-3.63;79.08;100976.80;4146692;84;21078;-85
2022/01/12 11:35:53;;;;;;;32.30;14.13;;;;;;;-3.51;79.02;100952.16;4176743;84;21023;-84
2022/01/12 11:41:57;;;;;;;40.70;15.93;;;;;;;-3.56;78.64;100954.75;4152273;84;21888;-83
2022/01/12 11:47:58;;;;;;;40.77;16.07;;;;;;;-3.60;78.64;100969.63;4157910;83;21115;-84
2022/01/12 11:54:14;;;;;;;35.27;15.43;;;;;;;-3.53;78.93;100945.41;4157057;84;21578;-84
2022/01/12 12:00:27;;;;;;;43.07;17.07;;;;;;;-3.50;78.43;100945.77;4178894;83;21022;-84
2022/01/12 12:06:28;;;;;;;45.80;16.37;;;;;;;-3.57;78.51;100941.59;3984934;85;23116;-84
2022/01/12 12:12:33;;;;;;;39.47;15.77;;;;;;;-3.55;78.44;100925.58;3996321;88;21107;-83
2022/01/12 12:18:35;;;;;;;32.07;13.57;;;;;;;-3.60;78.26;100937.51;4009036;88;21109;-84
2022/01/12 12:24:37;;;;;;;33.90;14.90;;;;;;;-3.73;78.36;100941.77;4017364;88;22250;-84
2022/01/12 12:30:39;;;;;;;35.67;15.73;;;;;;;-3.72;78.19;100962.15;4017827;88;21060;-84
2022/01/12 12:36:40;;;;;;;44.40;19.67;;;;;;;-3.73;78.31;100958.38;4017532;87;21087;-84
2022/01/12 12:42:43;;;;;;;45.13;17.53;;;;;;;-3.66;78.29;100964.40;4142044;85;21848;-84
2022/01/12 12:48:45;;;;;;;45.63;18.93;;;;;;;-3.61;78.15;100951.95;4108433;84;21582;-84
2022/01/12 12:54:46;;;;;;;65.50;23.87;;;;;;;-3.57;78.20;100967.82;4115826;84;21577;-85
2022/01/12 13:00:50;;;;;;;34.33;16.30;;;;;;;-3.49;78.01;100958.09;4112043;86;21051;-84
2022/01/12 13:06:54;;;;;;;38.43;16.00;;;;;;;-3.39;78.14;100954.30;4122409;86;21106;-84
2022/01/12 13:13:02;;;;;;;37.23;14.73;;;;;;;-3.32;77.96;100948.81;4046993;87;21053;-84
2022/01/12 13:19:19;;;;;;;37.23;16.00;;;;;;;-3.39;77.70;100946.27;4040788;87;21743;-84
2022/01/12 13:25:12;;;;;;;38.23;15.08;;;;;;;-3.35;77.62;100945.24;4048362;87;21081;-84
2022/01/12 13:31:18;;;;;;;37.10;15.77;;;;;;;-3.38;76.81;100923.78;4047192;87;21051;-84
2022/01/12 13:37:19;;;;;;;40.70;15.98;;;;;;;-3.34;77.29;100920.11;4040193;87;21583;-84
2022/01/12 13:43:23;;;;;;;39.20;17.03;;;;;;;-3.33;76.05;100927.08;4108632;84;21108;-83
2022/01/12 13:49:24;;;;;;;39.33;16.50;;;;;;;-3.44;77.35;100925.25;4066243;87;21051;-84
2022/01/12 13:55:26;;;;;;;42.40;18.30;;;;;;;-3.36;77.04;100924.88;4089236;86;21078;-84
2022/01/12 14:01:31;;;;;;;42.23;19.93;;;;;;;;;;4085874;87;21646;-84
2022/01/12 14:07:40;;;;;;;40.43;16.53;;;;;;;-3.58;77.01;100901.95;4073151;87;21826;-84
2022/01/12 14:13:40;;;;;;;39.50;15.93;;;;;;;-3.46;77.11;100908.63;4083397;87;21055;-84
2022/01/12 14:19:52;;;;;;;43.77;18.00;;;;;;;-3.39;77.09;100926.70;4087993;87;21021;-83
2022/01/12 14:25:55;;;;;;;49.37;20.80;;;;;;;-3.42;77.10;100929.34;4083816;87;21098;-83
2022/01/12 14:31:56;;;;;;;43.63;18.90;;;;;;;-3.41;77.04;100928.27;4091435;87;21155;-83
2022/01/12 14:37:57;;;;;;;46.97;20.43;;;;;;;-3.43;76.90;100926.90;4092119;85;21611;-84
2022/01/12 14:43:59;;;;;;;53.07;20.67;;;;;;;-3.46;77.07;100940.76;4097277;85;21098;-83
2022/01/12 14:50:01;;;;;;;50.90;21.17;;;;;;;-3.50;76.91;100934.23;4104115;86;21127;-83
2022/01/12 14:56:05;;;;;;;45.47;19.07;;;;;;;-3.60;77.01;100938.02;4104546;86;21015;-83
2022/01/12 15:02:07;;;;;;;56.23;21.57;;;;;;;-3.56;76.74;100926.64;4106609;86;21341;-84
2022/01/12 15:08:10;;;;;;;52.73;22.47;;;;;;;-3.61;76.95;100934.55;4110344;86;21042;-83
2022/01/12 15:14:31;;;;;;;52.30;22.83;;;;;;;-3.56;77.05;100921.28;4111513;86;20995;-84
2022/01/12 15:20:28;;;;;;;55.73;23.20;;;;;;;-3.53;77.29;100918.13;4111782;85;21043;-83
2022/01/12 15:26:27;;;;;;;58.47;24.97;;;;;;;-3.58;77.13;100915.34;4109259;86;21007;-83
2022/01/12 15:32:28;;;;;;;63.90;23.23;;;;;;;-3.61;77.24;100914.99;4106989;86;21125;-83
2022/01/12 15:38:29;;;;;;;53.50;23.30;;;;;;;-3.62;77.07;100917.39;4098009;86;21098;-83
2022/01/12 15:44:32;;;;;;;60.67;24.60;;;;;;;-3.64;77.27;100920.30;4117624;85;21079;-84
2022/01/12 15:50:33;;;;;;;62.93;27.77;;;;;;;-3.66;77.10;100928.27;4134134;84;21012;-83
2022/01/12 15:56:35;;;;;;;65.60;24.27;;;;;;;-3.69;77.30;100939.45;4116681;85;21079;-83
2022/01/12 16:02:36;;;;;;;72.13;28.50;;;;;;;-3.68;76.84;100949.91;4134829;85;21936;-83
2022/01/12 16:08:38;;;;;;;75.20;26.90;;;;;;;-3.72;77.20;100954.64;4158467;85;21062;-83
2022/01/12 16:14:39;;;;;;;83.23;27.97;;;;;;;-3.77;77.12;100953.18;4126944;85;21059;-84
2022/01/12 16:20:40;;;;;;;59.80;25.00;;;;;;;-3.80;77.16;100963.84;4096228;85;21097;-84
2022/01/12 16:26:43;;;;;;;72.10;29.03;;;;;;;-3.82;76.90;100957.11;4101569;85;22072;-83
2022/01/12 16:32:45;;;;;;;77.30;29.63;;;;;;;-3.88;76.61;100944.12;4092358;85;21021;-83
2022/01/12 16:38:48;;;;;;;70.70;27.37;;;;;;;-3.98;76.75;100940.41;4104031;85;21164;-84
2022/01/12 16:44:49;;;;;;;74.30;29.77;;;;;;;-4.11;76.56;100927.27;4113638;83;21040;-83
2022/01/12 16:50:51;;;;;;;65.37;27.60;;;;;;;-4.23;76.78;100942.50;4095043;85;20999;-84
2022/01/12 16:56:52;;;;;;;74.87;29.87;;;;;;;-4.37;76.53;100937.88;4111389;85;21040;-83
2022/01/12 17:02:53;;;;;;;85.20;31.83;;;;;;;-4.66;77.08;100917.90;4100889;85;21084;-83
2022/01/12 17:08:55;;;;;;;86.20;33.13;;;;;;;-4.76;77.15;100932.36;4101975;85;21085;-83
2022/01/12 17:14:56;;;;;;;90.13;37.73;;;;;;;-4.88;77.32;100923.78;4102536;85;21940;-83
2022/01/12 17:20:58;;;;;;;96.07;37.10;;;;;;;-4.89;77.70;100926.69;4096373;85;21049;-83
2022/01/12 17:27:08;;;;;;;112.97;39.43;;;;;;;-4.97;77.47;100915.81;4083268;85;21097;-83
2022/01/12 17:33:10;;;;;;;112.03;44.57;;;;;;;-5.05;77.58;100925.98;4091166;85;21007;-83
2022/01/12 17:39:15;;;;;;;120.47;45.57;;;;;;;-5.13;77.74;100918.28;4081021;85;21114;-82
2022/01/12 17:45:17;;;;;;;128.68;49.42;;;;;;;-5.20;78.03;100918.91;4130528;85;21460;-83
2022/01/12 17:51:18;;;;;;;108.20;43.57;;;;;;;-5.18;77.94;100925.64;3922604;86;9999787;-83
2022/01/12 17:57:20;;;;;;;122.07;49.57;;;;;;;-5.35;78.06;100925.98;4027981;88;21095;-83
2022/01/12 18:03:22;;;;;;;130.43;52.23;;;;;;;-5.44;78.59;100927.84;4097780;86;21765;-83
2022/01/12 18:09:25;;;;;;;129.33;50.70;;;;;;;-5.34;78.83;100922.80;4104357;86;21528;-83
2022/01/12 18:15:35;;;;;;;123.93;46.73;;;;;;;-5.31;78.68;100923.68;4088372;86;21095;-83
2022/01/12 18:21:29;;;;;;;119.63;48.97;;;;;;;-5.38;78.67;100911.75;4095992;86;21027;-83
2022/01/12 18:27:30;;;;;;;118.93;49.63;;;;;;;-5.39;78.86;100909.30;4099974;84;21070;-84
2022/01/12 18:33:33;;;;;;;116.53;45.13;;;;;;;-5.37;79.23;100914.70;4127783;86;21582;-82
2022/01/12 18:39:35;;;;;;;113.83;47.00;;;;;;;-5.34;79.06;100921.47;4125968;86;21110;-82
2022/01/12 18:45:36;;;;;;;113.50;46.07;;;;;;;-5.30;79.58;100915.45;4127589;84;21075;-82
2022/01/12 18:51:38;;;;;;;111.67;45.13;;;;;;;-5.22;79.49;100924.48;4117777;85;21018;-83
2022/01/12 18:57:39;;;;;;;120.73;47.70;;;;;;;-5.19;79.77;100924.53;4122297;86;21531;-84
2022/01/12 19:03:40;;;;;;;119.53;48.80;;;;;;;-5.11;80.03;100911.70;4119558;86;21063;-82
2022/01/12 19:09:41;;;;;;;124.73;49.40;;;;;;;-5.04;80.28;100906.23;4125333;86;21042;-83
2022/01/12 19:15:43;;;;;;;117.40;47.57;;;;;;;-4.97;80.58;100913.66;4124390;86;21547;-82
2022/01/12 19:21:45;;;;;;;117.87;44.23;;;;;;;-4.84;80.66;100920.14;4127360;86;21167;-83
2022/01/12 19:27:46;;;;;;;120.87;45.70;;;;;;;-4.66;80.52;100912.55;4128972;86;21030;-83
2022/01/12 19:33:50;;;;;;;132.03;49.00;;;;;;;-4.56;80.47;100908.30;4117172;86;21570;-83
2022/01/12 19:39:51;;;;;;;122.30;46.50;;;;;;;-4.44;80.47;100918.47;4111697;85;21020;-83
2022/01/12 19:45:52;;;;;;;117.43;44.77;;;;;;;-4.36;80.48;100918.64;4126066;84;21663;-83
2022/01/12 19:52:02;;;;;;;121.37;45.60;;;;;;;-4.33;80.50;100920.86;4132118;85;21901;-83
2022/01/12 19:58:10;;;;;;;118.67;43.17;;;;;;;-4.25;80.57;100923.19;4125794;85;21069;-83
2022/01/12 20:04:14;;;;;;;111.67;39.07;;;;;;;-4.17;80.57;100928.20;4115103;85;21047;-83
2022/01/12 20:10:16;;;;;;;110.23;41.93;;;;;;;-4.21;80.28;100911.80;4122438;85;21067;-83
2022/01/12 20:16:27;;;;;;;103.17;39.37;;;;;;;-4.26;80.39;100908.20;4125166;84;21441;-83
2022/01/12 20:22:50;;;;;;;109.30;44.10;;;;;;;-4.24;80.49;100906.91;4109955;85;21040;-83
2022/01/12 20:28:54;;;;;;;110.90;38.43;;;;;;;-4.21;80.58;100905.66;4122022;85;21048;-83
2022/01/12 20:35:00;;;;;;;98.30;40.23;;;;;;;-4.09;80.72;100907.28;4134332;85;20991;-83
2022/01/12 20:41:01;;;;;;;105.67;41.45;;;;;;;-4.01;80.66;100909.57;4124379;84;21926;-83
2022/01/12 20:47:05;;;;;;;100.07;40.67;;;;;;;-3.88;80.62;100917.88;4118111;84;21002;-83
2022/01/12 20:53:06;;;;;;;110.20;42.60;;;;;;;-3.80;80.49;100922.88;4127364;84;20960;-84
2022/01/12 20:59:09;;;;;;;106.47;41.23;;;;;;;-3.79;80.28;100921.30;4129083;85;21019;-83
2022/01/12 21:05:11;;;;;;;115.83;42.93;;;;;;;-3.72;80.26;100930.55;4122956;86;21043;-83
2022/01/12 21:11:13;;;;;;;115.80;46.03;;;;;;;-3.70;80.24;100928.45;4124494;86;22034;-83
2022/01/12 21:17:14;;;;;;;117.70;44.77;;;;;;;-3.72;80.29;100909.96;4114948;86;22321;-83
2022/01/12 21:23:15;;;;;;;119.00;43.63;;;;;;;-3.64;80.34;100905.58;4124925;86;21082;-83
2022/01/12 21:29:18;;;;;;;110.30;42.43;;;;;;;-3.57;80.35;100898.77;4123082;86;21076;-83
2022/01/12 21:35:25;;;;;;;96.40;37.00;;;;;;;-3.55;80.34;100890.77;4126078;84;21097;-84
2022/01/12 21:41:23;;;;;;;100.97;38.80;;;;;;;-3.58;80.14;100879.20;4131793;84;21047;-83
2022/01/12 21:47:24;;;;;;;97.77;38.77;;;;;;;-3.53;80.36;100886.00;4097325;85;21072;-83
2022/01/12 21:53:25;;;;;;;104.63;39.83;;;;;;;-3.42;80.02;100887.83;4073472;85;21086;-84
2022/01/12 21:59:28;;;;;;;106.77;40.60;;;;;;;-3.39;79.89;100887.35;4071294;85;22292;-83
2022/01/12 22:05:29;;;;;;;96.47;35.57;;;;;;;-3.34;79.94;100890.66;4076446;86;21614;-83
2022/01/12 22:11:30;;;;;;;99.20;39.10;;;;;;;-3.35;79.99;100875.10;4076442;86;21637;-82
2022/01/12 22:17:32;;;;;;;106.30;39.83;;;;;;;-3.36;80.09;100883.38;4074052;85;21444;-82
2022/01/12 22:23:33;;;;;;;116.13;44.00;;;;;;;-3.29;79.89;100878.70;4078358;86;21568;-83
2022/01/12 22:29:35;;;;;;;118.33;45.97;;;;;;;-3.25;79.90;100869.95;4083324;85;21054;-82
2022/01/12 22:35:36;;;;;;;116.00;44.37;;;;;;;-3.18;79.75;100868.98;4072391;86;21556;-83
2022/01/12 22:41:37;;;;;;;118.20;44.27;;;;;;;-3.23;80.00;100867.82;4065130;86;21195;-82
2022/01/12 22:47:39;;;;;;;117.13;44.20;;;;;;;-3.16;79.91;100866.34;4067972;86;21181;-83
2022/01/12 22:53:41;;;;;;;129.37;46.80;;;;;;;-3.05;79.83;100846.72;4062525;85;21798;-83
2022/01/12 22:59:48;;;;;;;134.37;48.17;;;;;;;-3.01;79.75;100847.05;4055557;86;21101;-83
2022/01/12 23:05:49;;;;;;;94.97;39.90;;;;;;;-2.96;80.10;100848.48;4059357;86;21031;-83
2022/01/12 23:11:51;;;;;;;92.90;35.30;;;;;;;-2.95;79.85;100838.05;4072519;86;21075;-83
2022/01/12 23:17:52;;;;;;;92.87;37.77;;;;;;;-2.96;79.78;100833.75;4058187;86;21074;-83
2022/01/12 23:23:53;;;;;;;103.07;39.20;;;;;;;-3.00;79.89;100825.38;4057924;86;21153;-83
2022/01/12 23:29:55;;;;;;;105.67;40.47;;;;;;;-2.99;80.04;100824.31;4066959;86;21580;-83
2022/01/12 23:42:43;;;;;;;107.20;43.00;;;;;;;-2.97;80.30;100818.70;4065217;86;21568;-83
